createdAt,value
2019-05-26T00:01:19.428Z,60.60
2019-05-26T00:03:52.014Z,62.29
2019-05-26T00:06:24.692Z,64.01
2019-05-26T00:08:57.258Z,55.91
2019-05-26T00:11:29.903Z,53.03
2019-05-26T00:14:03.699Z,55.17
2019-05-26T00:16:36.319Z,56.91
2019-05-26T00:19:08.893Z,58.32
2019-05-26T00:21:41.584Z,59.35
2019-05-26T00:24:14.255Z,61.10
2019-05-26T00:26:47.557Z,64.02
2019-05-26T00:29:20.127Z,55.48
2019-05-26T00:31:52.833Z,52.98
2019-05-26T00:34:25.495Z,55.39
2019-05-26T00:36:57.778Z,57.09
2019-05-26T00:39:30.437Z,58.71
2019-05-26T00:42:03.146Z,61.14
2019-05-26T00:44:35.897Z,64.51
2019-05-26T00:47:08.579Z,60.34
2019-05-26T00:49:41.259Z,53.01
2019-05-26T00:52:13.933Z,54.63
2019-05-26T00:54:46.609Z,56.31
2019-05-26T00:57:19.291Z,59.17
2019-05-26T00:59:51.877Z,59.98
2019-05-26T01:02:24.555Z,61.50
2019-05-26T01:04:57.226Z,65.10
2019-05-26T01:07:29.910Z,57.74
2019-05-26T01:10:02.796Z,53.52
2019-05-26T01:12:36.498Z,55.42
2019-05-26T01:15:11.763Z,57.62
2019-05-26T01:17:44.415Z,59.37
2019-05-26T01:20:19.855Z,60.86
2019-05-26T01:22:53.906Z,62.49
2019-05-26T01:25:27.617Z,62.19
2019-05-26T01:28:00.349Z,53.87
2019-05-26T01:30:39.115Z,54.01
2019-05-26T01:33:11.756Z,56.35
2019-05-26T01:35:44.533Z,57.90
2019-05-26T01:38:23.971Z,59.31
2019-05-26T01:40:52.146Z,60.81
2019-05-26T01:43:24.989Z,61.93
2019-05-26T01:45:57.916Z,63.99
2019-05-26T01:48:30.902Z,55.16
2019-05-26T01:51:03.577Z,52.91
2019-05-26T01:53:36.203Z,55.23
2019-05-26T01:56:09.235Z,57.50
2019-05-26T01:58:41.918Z,59.23
2019-05-26T02:01:14.500Z,60.20
2019-05-26T02:03:47.180Z,61.99
2019-05-26T02:06:19.965Z,62.86
2019-05-26T02:08:52.640Z,53.87
2019-05-26T02:11:25.210Z,52.87
2019-05-26T02:13:57.901Z,55.14
2019-05-26T02:16:30.572Z,57.14
2019-05-26T02:19:04.496Z,58.81
2019-05-26T02:21:37.164Z,60.94
2019-05-26T02:24:09.841Z,62.02
2019-05-26T02:26:42.622Z,64.28
2019-05-26T02:29:15.303Z,61.01
2019-05-26T02:31:47.882Z,52.45
2019-05-26T02:34:20.659Z,53.41
2019-05-26T02:36:53.340Z,55.84
2019-05-26T02:39:25.857Z,57.42
2019-05-26T02:41:58.487Z,58.89
2019-05-26T02:44:31.680Z,61.23
2019-05-26T02:47:04.269Z,61.61
2019-05-26T02:49:36.931Z,63.28
2019-05-26T02:52:09.610Z,63.50
2019-05-26T02:54:42.297Z,54.23
2019-05-26T02:57:14.974Z,54.64
2019-05-26T02:59:47.651Z,56.85
2019-05-26T03:02:20.433Z,59.03
2019-05-26T03:04:53.119Z,60.27
2019-05-26T03:07:27.837Z,61.84
2019-05-26T03:10:02.379Z,64.93
2019-05-26T03:12:39.551Z,58.54
2019-05-26T03:15:14.339Z,54.14
2019-05-26T03:17:49.340Z,55.98
2019-05-26T03:20:21.808Z,57.67
2019-05-26T03:22:57.025Z,59.36
2019-05-26T03:25:31.460Z,61.07
2019-05-26T03:28:05.249Z,61.85
2019-05-26T03:30:39.381Z,62.58
2019-05-26T03:33:12.066Z,53.84
2019-05-26T03:35:44.717Z,53.06
2019-05-26T03:38:17.163Z,55.27
2019-05-26T03:40:49.874Z,57.17
2019-05-26T03:43:22.554Z,59.84
2019-05-26T03:46:11.620Z,60.78
2019-05-26T03:48:44.186Z,61.80
2019-05-26T03:51:17.393Z,64.45
2019-05-26T03:53:50.223Z,55.08
2019-05-26T03:56:22.970Z,53.47
2019-05-26T03:58:55.524Z,55.38
2019-05-26T04:01:29.439Z,57.87
2019-05-26T04:04:02.111Z,60.05
2019-05-26T04:06:34.781Z,60.80
2019-05-26T04:09:09.875Z,62.19
2019-05-26T04:11:42.605Z,60.94
2019-05-26T04:14:15.290Z,54.32
2019-05-26T04:16:47.962Z,55.98
2019-05-26T04:19:20.642Z,58.20
2019-05-26T04:21:53.836Z,59.75
2019-05-26T04:24:26.065Z,61.42
2019-05-26T04:26:58.778Z,63.59
2019-05-26T04:29:31.347Z,58.86
2019-05-26T04:32:04.156Z,54.27
2019-05-26T04:34:36.810Z,56.40
2019-05-26T04:37:09.493Z,58.34
2019-05-26T04:39:42.177Z,60.08
2019-05-26T04:42:14.909Z,61.61
2019-05-26T04:44:47.538Z,62.68
2019-05-26T04:47:20.516Z,61.17
2019-05-26T04:49:54.091Z,54.11
2019-05-26T04:52:27.408Z,55.23
2019-05-26T04:54:59.982Z,57.30
2019-05-26T04:57:32.774Z,59.42
2019-05-26T05:00:08.209Z,60.47
2019-05-26T05:02:41.512Z,61.61
2019-05-26T05:05:14.202Z,63.25
2019-05-26T05:07:46.866Z,55.49
2019-05-26T05:10:20.776Z,53.48
2019-05-26T05:12:53.459Z,55.27
2019-05-26T05:15:26.190Z,57.76
2019-05-26T05:18:00.453Z,58.85
2019-05-26T05:20:33.327Z,60.34
2019-05-26T05:23:06.112Z,61.29
2019-05-26T05:25:40.228Z,62.13
2019-05-26T05:28:12.863Z,62.36
2019-05-26T05:30:45.485Z,53.73
2019-05-26T05:33:18.165Z,54.01
2019-05-26T05:35:50.835Z,56.02
2019-05-26T05:38:23.537Z,57.69
2019-05-26T05:40:59.896Z,58.97
2019-05-26T05:43:30.407Z,60.24
2019-05-26T05:46:04.326Z,61.07
2019-05-26T05:48:37.496Z,61.81
2019-05-26T05:51:11.322Z,62.45
2019-05-26T05:53:43.993Z,58.38
2019-05-26T05:56:16.571Z,54.76
2019-05-26T05:58:49.254Z,56.73
2019-05-26T06:01:21.830Z,58.58
2019-05-26T06:03:54.150Z,59.39
2019-05-26T06:06:26.782Z,60.52
2019-05-26T06:08:59.466Z,61.04
2019-05-26T06:11:33.142Z,61.66
2019-05-26T06:14:06.246Z,61.88
2019-05-26T06:16:38.922Z,63.11
2019-05-26T06:19:11.616Z,58.57
2019-05-26T06:21:44.290Z,53.94
2019-05-26T06:24:16.960Z,54.96
2019-05-26T06:26:49.537Z,57.48
2019-05-26T06:29:22.222Z,58.25
2019-05-26T06:31:55.359Z,59.17
2019-05-26T06:34:28.907Z,59.60
2019-05-26T06:37:01.598Z,59.73
2019-05-26T06:39:34.271Z,60.12
2019-05-26T06:42:06.951Z,60.65
2019-05-26T06:44:52.590Z,61.00
2019-05-26T06:47:13.948Z,61.35
2019-05-26T06:49:46.236Z,60.94
2019-05-26T06:52:18.900Z,61.76
2019-05-26T06:54:51.623Z,62.13
2019-05-26T06:57:24.263Z,61.33
2019-05-26T06:59:56.926Z,60.14
2019-05-26T07:02:30.744Z,60.19
2019-05-26T07:05:03.419Z,60.06
2019-05-26T07:07:36.299Z,58.89
2019-05-26T07:10:09.090Z,58.61
2019-05-26T07:12:41.755Z,59.68
2019-05-26T07:15:14.663Z,58.86
2019-05-26T07:17:47.315Z,58.60
2019-05-26T07:20:20.813Z,57.46
2019-05-26T07:22:54.115Z,56.64
2019-05-26T07:25:26.792Z,56.68
2019-05-26T07:27:59.575Z,57.44
2019-05-26T07:30:32.356Z,57.39
2019-05-26T07:33:05.342Z,56.85
2019-05-26T07:35:38.019Z,56.29
2019-05-26T07:38:10.598Z,55.36
2019-05-26T07:40:43.269Z,53.79
2019-05-26T07:43:15.960Z,54.02
2019-05-26T07:45:48.302Z,55.02
2019-05-26T07:48:21.424Z,54.94
2019-05-26T07:50:54.094Z,54.87
2019-05-26T07:53:26.971Z,54.34
2019-05-26T07:55:59.287Z,53.50
2019-05-26T07:58:31.919Z,53.96
2019-05-26T08:01:04.614Z,53.73
2019-05-26T08:03:37.285Z,53.98
2019-05-26T08:06:09.964Z,52.94
2019-05-26T08:08:42.635Z,52.77
2019-05-26T08:11:15.313Z,53.13
2019-05-26T08:13:48.012Z,53.12
2019-05-26T08:16:20.681Z,51.93
2019-05-26T08:18:53.352Z,50.42
2019-05-26T08:21:26.033Z,50.43
2019-05-26T08:23:59.693Z,50.20
2019-05-26T08:26:32.421Z,49.64
2019-05-26T08:29:05.098Z,49.21
2019-05-26T08:31:37.611Z,49.67
2019-05-26T08:34:10.207Z,50.06
2019-05-26T08:36:44.265Z,49.23
2019-05-26T08:39:16.941Z,49.79
2019-05-26T08:41:49.626Z,47.88
2019-05-26T08:44:22.290Z,48.50
2019-05-26T08:46:54.680Z,48.17
2019-05-26T08:49:27.350Z,48.33
2019-05-26T08:52:00.134Z,47.93
2019-05-26T08:54:32.814Z,48.15
2019-05-26T08:57:05.707Z,47.99
2019-05-26T08:59:38.274Z,46.21
2019-05-26T09:02:10.957Z,46.91
2019-05-26T09:04:43.634Z,46.88
2019-05-26T09:07:16.311Z,47.09
2019-05-26T09:09:49.021Z,45.95
2019-05-26T09:12:22.075Z,45.93
2019-05-26T09:14:54.747Z,45.93
2019-05-26T09:17:27.434Z,45.89
2019-05-26T09:20:00.013Z,46.12
2019-05-26T09:22:32.894Z,46.31
2019-05-26T09:25:07.211Z,45.40
2019-05-26T09:27:39.896Z,46.63
2019-05-26T09:30:12.674Z,46.47
2019-05-26T09:32:45.351Z,45.77
2019-05-26T09:35:18.949Z,46.15
2019-05-26T09:37:51.893Z,45.30
2019-05-26T09:40:24.611Z,45.21
2019-05-26T09:42:57.710Z,45.44
2019-05-26T09:45:30.491Z,45.99
2019-05-26T09:48:03.370Z,45.77
2019-05-26T09:50:36.038Z,45.93
2019-05-26T09:53:08.733Z,46.82
2019-05-26T09:55:40.959Z,46.70
2019-05-26T09:58:13.669Z,46.14
2019-05-26T10:00:47.244Z,45.81
2019-05-26T10:03:20.062Z,45.98
2019-05-26T10:05:52.741Z,45.00
2019-05-26T10:08:25.422Z,45.35
2019-05-26T10:10:59.314Z,45.89
2019-05-26T10:13:32.428Z,45.12
2019-05-26T10:16:04.985Z,43.58
2019-05-26T10:18:37.672Z,45.16
2019-05-26T10:21:10.248Z,43.94
2019-05-26T10:23:42.925Z,44.33
2019-05-26T10:26:15.503Z,43.63
2019-05-26T10:28:48.176Z,42.70
2019-05-26T10:31:20.868Z,41.58
2019-05-26T10:33:53.579Z,41.92
2019-05-26T10:36:26.732Z,41.83
2019-05-26T10:39:00.633Z,42.71
2019-05-26T10:41:33.262Z,43.27
2019-05-26T10:44:06.442Z,40.34
2019-05-26T10:46:39.289Z,40.92
2019-05-26T10:49:11.571Z,40.77
2019-05-26T10:51:45.566Z,41.19
2019-05-26T10:54:18.302Z,41.40
2019-05-26T10:56:50.918Z,41.69
2019-05-26T10:59:23.218Z,40.26
2019-05-26T11:01:55.433Z,40.61
2019-05-26T11:04:28.137Z,39.55
2019-05-26T11:07:00.725Z,38.96
2019-05-26T11:09:33.401Z,39.44
2019-05-26T11:12:05.736Z,39.16
2019-05-26T11:14:38.459Z,39.54
2019-05-26T11:17:10.690Z,37.94
2019-05-26T11:19:43.406Z,38.35
2019-05-26T11:22:16.074Z,39.00
2019-05-26T11:24:48.750Z,37.58
2019-05-26T11:27:21.338Z,36.64
2019-05-26T11:29:54.016Z,37.93
2019-05-26T11:32:26.721Z,37.78
2019-05-26T11:35:01.916Z,38.13
2019-05-26T11:37:35.370Z,38.12
2019-05-26T11:40:10.062Z,37.64
2019-05-26T11:42:45.014Z,36.17
2019-05-26T11:45:18.176Z,37.18
2019-05-26T11:47:50.960Z,36.19
2019-05-26T11:50:24.350Z,36.90
2019-05-26T11:52:56.930Z,36.53
2019-05-26T11:55:29.603Z,36.33
2019-05-26T11:58:02.212Z,35.88
2019-05-26T12:00:36.482Z,34.77
2019-05-26T12:03:09.483Z,33.95
2019-05-26T12:05:42.160Z,34.22
2019-05-26T12:08:14.848Z,34.74
2019-05-26T12:10:48.194Z,34.68
2019-05-26T12:13:20.922Z,34.98
2019-05-26T12:15:52.462Z,33.89
2019-05-26T12:18:25.163Z,34.14
2019-05-26T12:20:57.826Z,33.02
2019-05-26T12:23:30.824Z,32.39
2019-05-26T12:26:03.502Z,32.40
2019-05-26T12:28:35.825Z,31.73
2019-05-26T12:31:08.850Z,31.99
2019-05-26T12:33:43.066Z,32.74
2019-05-26T12:36:15.355Z,31.89
2019-05-26T12:38:54.166Z,31.95
2019-05-26T12:41:26.941Z,32.60
2019-05-26T12:43:59.524Z,31.89
2019-05-26T12:46:32.204Z,30.75
2019-05-26T12:49:05.718Z,30.62
2019-05-26T12:51:38.372Z,30.28
2019-05-26T12:54:12.390Z,29.59
2019-05-26T12:56:44.668Z,30.11
2019-05-26T12:59:17.340Z,30.16
2019-05-26T13:01:50.632Z,29.14
2019-05-26T13:04:23.198Z,29.21
2019-05-26T13:06:55.939Z,28.28
2019-05-26T13:09:28.567Z,29.40
2019-05-26T13:12:01.429Z,29.93
2019-05-26T13:14:34.129Z,29.04
2019-05-26T13:17:06.803Z,28.96
2019-05-26T13:19:39.437Z,29.02
2019-05-26T13:22:12.149Z,29.02
2019-05-26T13:24:44.847Z,30.12
2019-05-26T13:27:17.888Z,29.51
2019-05-26T13:29:50.668Z,29.89
2019-05-26T13:32:23.354Z,29.31
2019-05-26T13:34:56.029Z,29.12
2019-05-26T13:37:28.707Z,30.07
2019-05-26T13:40:01.290Z,30.47
2019-05-26T13:42:34.162Z,29.68
2019-05-26T13:45:21.800Z,29.03
2019-05-26T13:47:44.953Z,28.81
2019-05-26T13:50:18.673Z,28.83
2019-05-26T13:52:51.335Z,28.30
2019-05-26T13:55:24.122Z,27.80
2019-05-26T13:57:56.996Z,27.97
2019-05-26T14:00:29.675Z,27.75
2019-05-26T14:03:02.287Z,27.10
2019-05-26T14:05:34.936Z,27.21
2019-05-26T14:08:07.620Z,27.19
2019-05-26T14:10:40.609Z,25.74
2019-05-26T14:13:13.378Z,25.77
2019-05-26T14:15:46.468Z,26.40
2019-05-26T14:18:20.884Z,26.85
2019-05-26T14:20:53.105Z,27.19
2019-05-26T14:23:25.741Z,26.67
2019-05-26T14:25:58.421Z,26.85
2019-05-26T14:28:31.095Z,27.69
2019-05-26T14:31:03.665Z,26.74
2019-05-26T14:33:36.356Z,26.58
2019-05-26T14:36:08.924Z,26.23
2019-05-26T14:38:43.517Z,25.53
2019-05-26T14:41:15.380Z,26.49
2019-05-26T14:43:48.193Z,26.19
2019-05-26T14:46:20.873Z,25.64
2019-05-26T14:48:53.544Z,24.97
2019-05-26T14:51:26.127Z,24.93
2019-05-26T14:53:58.908Z,25.14
2019-05-26T14:56:31.144Z,25.69
2019-05-26T14:59:03.880Z,25.33
2019-05-26T15:01:36.542Z,25.88
2019-05-26T15:04:09.521Z,26.26
2019-05-26T15:06:41.955Z,26.48
2019-05-26T15:09:24.723Z,26.15
2019-05-26T15:11:50.218Z,25.44
2019-05-26T15:14:23.107Z,25.42
2019-05-26T15:16:55.660Z,25.63
2019-05-26T15:19:28.359Z,25.60
2019-05-26T15:22:00.937Z,26.02
2019-05-26T15:24:33.575Z,25.19
2019-05-26T15:27:06.196Z,25.90
2019-05-26T15:29:39.059Z,26.15
2019-05-26T15:32:11.962Z,26.36
2019-05-26T15:34:44.948Z,26.36
2019-05-26T15:37:18.035Z,26.62
2019-05-26T15:39:50.718Z,26.05
2019-05-26T15:42:23.293Z,25.00
2019-05-26T15:44:57.405Z,24.84
2019-05-26T15:47:30.184Z,24.83
2019-05-26T15:50:02.865Z,24.24
2019-05-26T15:52:35.654Z,24.53
2019-05-26T15:55:09.352Z,24.38
2019-05-26T15:57:42.030Z,25.16
2019-05-26T16:00:15.945Z,25.60
2019-05-26T16:02:48.530Z,25.90
2019-05-26T16:05:21.201Z,26.75
2019-05-26T16:07:53.426Z,27.40
2019-05-26T16:10:26.040Z,27.83
2019-05-26T16:12:58.615Z,28.52
2019-05-26T16:15:31.294Z,29.14
2019-05-26T16:18:03.518Z,29.59
2019-05-26T16:20:37.266Z,30.24
2019-05-26T16:23:09.479Z,30.81
2019-05-26T16:25:42.122Z,31.54
2019-05-26T16:28:14.794Z,32.06
2019-05-26T16:30:47.891Z,32.43
2019-05-26T16:33:20.572Z,33.18
2019-05-26T16:35:55.505Z,33.15
2019-05-26T16:38:27.566Z,33.93
2019-05-26T16:41:00.275Z,34.57
2019-05-26T16:43:32.917Z,34.66
2019-05-26T16:46:05.822Z,34.83
2019-05-26T16:48:38.510Z,35.19
2019-05-26T16:51:11.260Z,35.40
2019-05-26T16:53:43.936Z,35.37
2019-05-26T16:56:16.735Z,35.48
2019-05-26T16:58:49.409Z,36.18
2019-05-26T17:01:22.082Z,36.22
2019-05-26T17:03:54.858Z,36.50
2019-05-26T17:06:27.538Z,36.65
2019-05-26T17:09:00.221Z,36.81
2019-05-26T17:11:32.901Z,36.58
2019-05-26T17:14:05.578Z,36.72
2019-05-26T17:16:38.319Z,37.20
2019-05-26T17:19:10.946Z,37.58
2019-05-26T17:21:43.617Z,37.45
2019-05-26T17:24:21.731Z,37.35
2019-05-26T17:26:55.940Z,37.65
2019-05-26T17:29:28.166Z,38.03
2019-05-26T17:32:00.939Z,38.27
2019-05-26T17:34:33.571Z,38.45
2019-05-26T17:37:06.487Z,38.69
2019-05-26T17:39:39.127Z,39.20
2019-05-26T17:42:11.811Z,39.53
2019-05-26T17:44:44.031Z,39.66
2019-05-26T17:47:29.075Z,40.10
2019-05-26T17:49:51.073Z,40.30
2019-05-26T17:52:23.650Z,41.21
2019-05-26T17:54:56.228Z,41.23
2019-05-26T17:57:29.161Z,41.29
2019-05-26T18:00:01.388Z,41.88
2019-05-26T18:02:35.389Z,42.15
2019-05-26T18:05:08.272Z,43.14
2019-05-26T18:07:42.610Z,42.69
2019-05-26T18:10:17.246Z,43.05
2019-05-26T18:12:50.787Z,43.30
2019-05-26T18:15:24.628Z,43.49
2019-05-26T18:17:59.204Z,43.70
2019-05-26T18:20:32.442Z,43.60
2019-05-26T18:23:04.968Z,43.89
2019-05-26T18:25:37.591Z,44.52
2019-05-26T18:28:10.166Z,45.34
2019-05-26T18:30:44.111Z,45.65
2019-05-26T18:33:18.433Z,45.76
2019-05-26T18:35:51.449Z,45.85
2019-05-26T18:38:24.379Z,46.32
2019-05-26T18:40:57.058Z,46.59
2019-05-26T18:43:30.045Z,47.08
2019-05-26T18:46:02.734Z,47.31
2019-05-26T18:48:40.522Z,47.29
2019-05-26T18:51:21.787Z,47.86
2019-05-26T18:54:02.620Z,48.93
2019-05-26T18:56:53.510Z,49.38
2019-05-26T18:59:28.395Z,48.54
2019-05-26T19:02:04.784Z,49.50
2019-05-26T19:04:41.850Z,49.59
2019-05-26T19:07:19.504Z,50.09
2019-05-26T19:09:55.013Z,50.07
2019-05-26T19:12:29.020Z,50.56
2019-05-26T19:15:04.431Z,50.62
2019-05-26T19:17:38.269Z,50.50
2019-05-26T19:20:16.716Z,51.46
2019-05-26T19:22:48.843Z,51.52
2019-05-26T19:25:23.669Z,51.60
2019-05-26T19:27:59.092Z,52.07
2019-05-26T19:30:32.724Z,51.89
2019-05-26T19:33:05.745Z,52.60
2019-05-26T19:35:42.149Z,52.66
2019-05-26T19:38:30.586Z,52.66
2019-05-26T19:41:08.733Z,52.91
2019-05-26T19:43:48.575Z,52.79
2019-05-26T19:46:25.727Z,52.64
2019-05-26T19:48:59.273Z,52.90
2019-05-26T19:51:31.935Z,53.27
2019-05-26T19:54:04.619Z,53.50
2019-05-26T19:56:37.293Z,53.67
2019-05-26T19:59:09.747Z,53.79
2019-05-26T20:01:42.451Z,53.53
2019-05-26T20:04:16.055Z,54.13
2019-05-26T20:06:48.660Z,53.57
2019-05-26T20:09:21.300Z,53.52
2019-05-26T20:11:53.709Z,53.31
2019-05-26T20:14:26.441Z,53.32
2019-05-26T20:16:59.122Z,53.29
2019-05-26T20:19:31.805Z,53.32
2019-05-26T20:22:04.477Z,53.21
2019-05-26T20:24:37.056Z,53.30
2019-05-26T20:27:09.737Z,53.51
2019-05-26T20:29:42.314Z,53.22
2019-05-26T20:32:14.997Z,53.44
2019-05-26T20:34:47.671Z,53.44
2019-05-26T20:37:20.355Z,53.94
2019-05-26T20:39:52.936Z,53.62
2019-05-26T20:42:25.709Z,53.79
2019-05-26T20:44:58.722Z,53.62
2019-05-26T20:47:31.910Z,53.64
2019-05-26T20:50:08.260Z,53.60
2019-05-26T20:52:40.944Z,53.63
2019-05-26T20:55:13.719Z,53.72
2019-05-26T20:57:46.598Z,53.65
2019-05-26T21:00:19.666Z,53.56
2019-05-26T21:02:52.369Z,53.64
2019-05-26T21:05:24.941Z,53.55
2019-05-26T21:07:58.013Z,53.66
2019-05-26T21:10:30.606Z,53.95
2019-05-26T21:13:02.848Z,54.05
2019-05-26T21:15:35.863Z,54.24
2019-05-26T21:18:08.553Z,53.97
2019-05-26T21:20:43.067Z,54.12
2019-05-26T21:23:15.756Z,54.17
2019-05-26T21:25:48.320Z,54.29
2019-05-26T21:28:21.063Z,54.37
2019-05-26T21:30:53.675Z,54.56
2019-05-26T21:33:26.358Z,54.93
2019-05-26T21:35:58.942Z,54.81
2019-05-26T21:38:31.611Z,54.73
2019-05-26T21:41:04.189Z,55.08
2019-05-26T21:43:36.872Z,55.01
2019-05-26T21:46:09.452Z,55.06
2019-05-26T21:48:42.126Z,55.31
2019-05-26T21:51:14.912Z,55.60
2019-05-26T21:53:47.586Z,55.55
2019-05-26T21:56:19.797Z,55.52
2019-05-26T21:58:52.130Z,55.69
2019-05-26T22:01:24.913Z,56.08
2019-05-26T22:03:58.098Z,56.22
2019-05-26T22:06:30.648Z,56.21
2019-05-26T22:09:03.479Z,56.22
2019-05-26T22:11:35.972Z,56.16
2019-05-26T22:14:08.815Z,56.30
2019-05-26T22:16:41.696Z,56.57
2019-05-26T22:19:14.789Z,56.47
2019-05-26T22:21:47.671Z,56.60
2019-05-26T22:24:20.351Z,56.72
2019-05-26T22:26:52.561Z,56.70
2019-05-26T22:29:25.220Z,56.91
2019-05-26T22:31:57.775Z,57.05
2019-05-26T22:34:30.455Z,57.14
2019-05-26T22:37:03.032Z,57.34
2019-05-26T22:39:35.718Z,57.31
2019-05-26T22:42:08.793Z,57.48
2019-05-26T22:44:41.482Z,57.82
2019-05-26T22:47:14.058Z,57.52
2019-05-26T22:49:46.729Z,58.00
2019-05-26T22:52:19.623Z,57.95
2019-05-26T22:54:52.600Z,58.04
2019-05-26T22:57:25.229Z,58.31
2019-05-26T22:59:57.577Z,58.56
2019-05-26T23:02:30.244Z,58.45
2019-05-26T23:05:02.598Z,58.75
2019-05-26T23:07:35.077Z,58.87
2019-05-26T23:10:09.130Z,58.99
2019-05-26T23:12:41.260Z,59.19
2019-05-26T23:15:15.368Z,59.38
2019-05-26T23:17:49.286Z,59.59
2019-05-26T23:20:23.900Z,59.50
2019-05-26T23:22:57.192Z,60.01
2019-05-26T23:25:30.593Z,59.97
2019-05-26T23:28:04.603Z,60.48
2019-05-26T23:30:38.632Z,60.31
2019-05-26T23:33:13.541Z,60.39
2019-05-26T23:35:47.549Z,60.44
2019-05-26T23:38:21.097Z,60.77
2019-05-26T23:40:55.065Z,60.93
2019-05-26T23:43:28.973Z,61.28
2019-05-26T23:46:01.852Z,61.35
2019-05-26T23:48:34.435Z,61.53
2019-05-26T23:51:07.007Z,61.65
2019-05-26T23:53:39.489Z,61.76
2019-05-26T23:56:12.166Z,61.92
2019-05-26T23:58:46.224Z,61.86
